Time;durP1;ratioP1;P1;durP2;ratioP2;P2;SDS_P1;SDS_P2;PMS_P1;PMS_P2;Temp;Humidity;BMP_temperature;BMP_pressure;BME280_temperature;BME280_humidity;BME280_pressure;Samples;Min_cycle;Max_cycle;Signal;HPM_P1;HPM_P2
2023/01/13 11:09:25;;;;;;;5.28;1.55;;;;;;;;;;175383;27;10003016;-63
2023/01/13 11:09:40;;;;;;;6.60;1.80;;;;;;;;;;529974;27;1742;-63
2023/01/13 11:10:07;;;;;;;6.57;1.83;;;;;;;;;;528750;27;1626;-61
2023/01/13 11:10:26;;;;;;;6.03;1.75;;;;;;;;;;528571;27;2070;-62
2023/01/13 11:10:45;;;;;;;6.68;1.50;;;;;;;;;;526515;27;1455;-63
2023/01/13 11:11:01;;;;;;;7.75;1.75;;;;;;;;;;527294;27;1321;-63
2023/01/13 11:11:27;;;;;;;7.90;1.90;;;;;;;;;;526175;28;1169;-63
2023/01/13 11:11:43;;;;;;;6.75;1.65;;;;;;;;;;525918;27;1160;-63
2023/01/13 11:11:59;;;;;;;7.10;1.87;;;;;;;;;;524785;27;1770;-62
2023/01/13 11:12:32;;;;;;;6.97;1.90;;;;;;;;;;526299;27;1394;-62
2023/01/13 11:13:09;;;;;;;6.38;1.85;;;;;;;;;;527349;28;1074;-63
2023/01/13 11:13:34;;;;;;;6.57;1.70;;;;;;;;;;529119;27;1070;-63
2023/01/13 11:14:44;;;;;;;8.40;1.80;;;;;;;;;;531814;27;1090;-63
2023/01/13 11:15:02;;;;;;;6.88;1.70;;;;;;;;;;531515;27;1018;-62
2023/01/13 11:15:22;;;;;;;7.53;1.80;;;;;;;;;;526069;28;1381;-63
2023/01/13 11:16:13;;;;;;;7.28;1.70;;;;;;;;;;527244;28;1170;-64
2023/01/13 11:16:28;;;;;;;8.10;1.83;;;;;;;;;;520324;28;1397;-63
2023/01/13 11:16:48;;;;;;;8.10;1.80;;;;;;;;;;524853;28;999;-62
2023/01/13 11:17:13;;;;;;;8.65;1.90;;;;;;;;;;522935;28;1085;-62
2023/01/13 11:17:45;;;;;;;7.88;1.90;;;;;;;;;;526756;27;1496;-62
2023/01/13 11:18:05;;;;;;;8.77;1.85;;;;;;;;;;528668;27;895;-62
2023/01/13 11:18:42;;;;;;;8.35;1.70;;;;;;;;;;526167;27;1790;-62
2023/01/13 11:19:11;;;;;;;7.78;1.83;;;;;;;;;;528108;27;1290;-63
2023/01/13 11:19:31;;;;;;;7.25;1.80;;;;;;;;;;526414;28;1809;-63
2023/01/13 11:20:30;;;;;;;7.35;1.83;;;;;;;;;;525857;28;1374;-64
2023/01/13 11:20:49;;;;;;;7.63;1.70;;;;;;;;;;525728;28;923;-62
2023/01/13 11:21:17;;;;;;;6.82;1.70;;;;;;;;;;526540;28;1165;-64
2023/01/13 11:21:39;;;;;;;6.68;1.73;;;;;;;;;;525541;28;1367;-63
2023/01/13 11:22:13;;;;;;;7.05;1.70;;;;;;;;;;526783;28;1399;-63
2023/01/13 11:22:34;;;;;;;8.75;2.05;;;;;;;;;;526762;28;1074;-63
2023/01/13 11:22:54;;;;;;;8.85;2.25;;;;;;;;;;526232;28;2474;-63
2023/01/13 11:23:41;;;;;;;9.13;2.08;;;;;;;;;;527830;28;1062;-64
2023/01/13 11:24:05;;;;;;;7.35;1.83;;;;;;;;;;523432;27;1290;-63
2023/01/13 11:24:26;;;;;;;7.85;1.80;;;;;;;;;;529612;27;1058;-62
2023/01/13 11:24:54;;;;;;;8.13;1.83;;;;;;;;;;528914;27;1637;-63
2023/01/13 11:25:15;;;;;;;8.13;1.80;;;;;;;;;;528947;27;1144;-63
2023/01/13 11:25:42;;;;;;;8.57;1.85;;;;;;;;;;528210;27;1314;-62
2023/01/13 11:26:11;;;;;;;7.90;1.92;;;;;;;;;;526162;27;1145;-63
2023/01/13 11:26:47;;;;;;;8.15;2.08;;;;;;;;;;527174;28;1080;-62
2023/01/13 11:27:11;;;;;;;6.75;1.80;;;;;;;;;;528402;27;1270;-62
2023/01/13 11:27:35;;;;;;;7.93;1.83;;;;;;;;;;526423;28;1483;-64
2023/01/13 11:28:14;;;;;;;8.65;2.00;;;;;;;;;;526405;28;1496;-63
2023/01/13 11:28:53;;;;;;;9.13;2.00;;;;;;;;;;526919;28;1054;-63
2023/01/13 11:29:17;;;;;;;7.18;1.88;;;;;;;;;;526401;28;1966;-63
2023/01/13 11:30:00;;;;;;;7.22;1.70;;;;;;;;;;529128;27;1042;-62
2023/01/13 11:30:40;;;;;;;9.27;2.08;;;;;;;;;;528390;27;1081;-64
2023/01/13 11:30:58;;;;;;;7.88;1.77;;;;;;;;;;527555;28;1195;-63
2023/01/13 11:31:17;;;;;;;7.82;1.95;;;;;;;;;;529845;27;1561;-64
2023/01/13 11:31:38;;;;;;;8.27;2.05;;;;;;;;;;528285;27;1733;-63
2023/01/13 11:32:06;;;;;;;7.60;1.80;;;;;;;;;;526746;27;1911;-63
2023/01/13 11:32:23;;;;;;;7.68;1.77;;;;;;;;;;527863;27;1049;-63
2023/01/13 11:32:56;;;;;;;7.35;1.85;;;;;;;;;;527694;28;1398;-63
2023/01/13 11:33:14;;;;;;;9.45;2.08;;;;;;;;;;529234;27;1092;-62
2023/01/13 11:33:49;;;;;;;8.23;2.20;;;;;;;;;;529508;27;915;-63
2023/01/13 11:34:34;;;;;;;6.82;1.63;;;;;;;;;;525864;28;1279;-62
2023/01/13 11:35:17;;;;;;;6.13;1.60;;;;;;;;;;529687;27;998;-62
2023/01/13 11:35:37;;;;;;;7.63;2.00;;;;;;;;;;526713;28;927;-62
2023/01/13 11:36:07;;;;;;;8.68;2.10;;;;;;;;;;525699;28;1262;-62
2023/01/13 11:36:27;;;;;;;5.63;1.67;;;;;;;;;;525811;28;1154;-64
2023/01/13 11:36:50;;;;;;;6.60;1.85;;;;;;;;;;525652;28;1995;-63
2023/01/13 11:37:25;;;;;;;7.00;1.80;;;;;;;;;;525129;28;1101;-63
2023/01/13 11:37:48;;;;;;;8.00;1.98;;;;;;;;;;526062;27;1050;-63
2023/01/13 11:38:16;;;;;;;7.93;1.90;;;;;;;;;;525824;27;1211;-62
2023/01/13 11:38:41;;;;;;;8.45;1.88;;;;;;;;;;529436;27;1036;-63
2023/01/13 11:39:04;;;;;;;8.18;2.00;;;;;;;;;;530519;27;966;-63
2023/01/13 11:39:28;;;;;;;7.70;2.00;;;;;;;;;;527799;27;1353;-63
2023/01/13 11:40:02;;;;;;;8.20;2.15;;;;;;;;;;529561;27;1097;-62
2023/01/13 11:40:26;;;;;;;8.63;2.13;;;;;;;;;;529216;27;1062;-62
2023/01/13 11:40:45;;;;;;;7.93;2.00;;;;;;;;;;528921;27;1112;-62
2023/01/13 11:41:12;;;;;;;8.65;2.10;;;;;;;;;;526477;27;1377;-63
2023/01/13 11:41:31;;;;;;;6.70;1.65;;;;;;;;;;526989;27;1272;-62
2023/01/13 11:42:44;;;;;;;8.85;1.95;;;;;;;;;;527900;27;859;-63
2023/01/13 11:43:30;;;;;;;9.20;2.03;;;;;;;;;;530503;27;1159;-62
2023/01/13 11:44:12;;;;;;;8.82;1.90;;;;;;;;;;528291;27;1332;-62
2023/01/13 11:44:40;;;;;;;7.43;1.80;;;;;;;;;;528149;27;990;-62
2023/01/13 11:45:15;;;;;;;8.13;1.80;;;;;;;;;;528487;27;1053;-62
2023/01/13 11:45:56;;;;;;;8.40;1.98;;;;;;;;;;528237;27;953;-62
2023/01/13 11:46:11;;;;;;;7.53;1.88;;;;;;;;;;527598;27;1470;-62
2023/01/13 11:46:27;;;;;;;8.10;1.90;;;;;;;;;;527158;28;1189;-62
2023/01/13 11:46:42;;;;;;;8.80;1.98;;;;;;;;;;524932;28;1219;-62
2023/01/13 11:46:58;;;;;;;9.13;2.33;;;;;;;;;;525143;28;1117;-61
2023/01/13 11:47:23;;;;;;;9.07;2.30;;;;;;;;;;524601;28;1216;-61
2023/01/13 11:47:38;;;;;;;7.97;2.10;;;;;;;;;;522202;28;1629;-61
2023/01/13 11:47:57;;;;;;;6.50;1.77;;;;;;;;;;523067;28;1114;-62
2023/01/13 11:48:19;;;;;;;7.40;1.80;;;;;;;;;;525262;28;1101;-61
2023/01/13 11:48:39;;;;;;;7.70;1.80;;;;;;;;;;524375;28;1398;-62
2023/01/13 11:48:55;;;;;;;8.25;2.00;;;;;;;;;;522138;28;1284;-63
2023/01/13 11:49:32;;;;;;;8.48;1.90;;;;;;;;;;523839;28;1949;-62
2023/01/13 11:49:47;;;;;;;8.15;2.15;;;;;;;;;;524377;28;1261;-63
2023/01/13 11:50:13;;;;;;;8.37;2.30;;;;;;;;;;525424;28;1181;-63
2023/01/13 11:50:56;;;;;;;8.75;2.45;;;;;;;;;;525512;28;1595;-62
2023/01/13 11:51:15;;;;;;;8.95;1.85;;;;;;;;;;530885;27;1264;-62
2023/01/13 11:51:47;;;;;;;8.77;1.80;;;;;;;;;;530598;27;1001;-63
2023/01/13 11:52:08;;;;;;;9.05;1.95;;;;;;;;;;528042;27;1395;-62
2023/01/13 11:53:00;;;;;;;9.15;2.08;;;;;;;;;;529582;27;1340;-63
2023/01/13 11:53:21;;;;;;;8.13;2.10;;;;;;;;;;529013;27;1070;-62
2023/01/13 11:54:04;;;;;;;7.68;1.88;;;;;;;;;;525965;28;1091;-63
2023/01/13 11:54:39;;;;;;;9.45;2.17;;;;;;;;;;527364;28;1428;-63
2023/01/13 11:54:57;;;;;;;7.88;1.90;;;;;;;;;;524189;28;1430;-63
2023/01/13 11:55:23;;;;;;;9.00;1.88;;;;;;;;;;524673;28;1236;-62
2023/01/13 11:55:52;;;;;;;7.38;1.83;;;;;;;;;;525836;28;1510;-64
2023/01/13 11:56:44;;;;;;;9.20;2.00;;;;;;;;;;523790;28;1419;-63
2023/01/13 11:57:08;;;;;;;9.95;2.30;;;;;;;;;;526336;28;1168;-64
2023/01/13 11:57:33;;;;;;;9.60;2.40;;;;;;;;;;526866;28;1249;-63
2023/01/13 11:58:00;;;;;;;10.30;2.17;;;;;;;;;;527614;28;1179;-62
2023/01/13 11:58:37;;;;;;;9.27;2.03;;;;;;;;;;523787;28;1271;-63
2023/01/13 11:59:16;;;;;;;7.65;2.00;;;;;;;;;;526369;28;1053;-63
2023/01/13 11:59:53;;;;;;;10.50;2.00;;;;;;;;;;527084;28;1490;-63
2023/01/13 12:00:35;;;;;;;7.32;1.92;;;;;;;;;;526165;28;1460;-63
2023/01/13 12:01:08;;;;;;;8.07;1.92;;;;;;;;;;527508;28;1063;-62
2023/01/13 12:01:34;;;;;;;9.68;2.00;;;;;;;;;;527406;27;1051;-63
2023/01/13 12:02:26;;;;;;;8.52;1.85;;;;;;;;;;526605;28;1400;-63
2023/01/13 12:02:44;;;;;;;8.75;1.90;;;;;;;;;;529266;27;1223;-63
2023/01/13 12:03:08;;;;;;;9.10;2.00;;;;;;;;;;528689;27;1390;-63
2023/01/13 12:03:32;;;;;;;8.13;1.80;;;;;;;;;;528880;27;1032;-63
2023/01/13 12:04:09;;;;;;;9.20;1.90;;;;;;;;;;528203;27;1302;-63
2023/01/13 12:04:36;;;;;;;8.88;1.90;;;;;;;;;;528104;27;1133;-63
2023/01/13 12:05:19;;;;;;;8.15;1.80;;;;;;;;;;526360;28;1066;-63
2023/01/13 12:05:43;;;;;;;9.40;2.13;;;;;;;;;;524773;28;1393;-63
2023/01/13 12:06:35;;;;;;;9.07;2.15;;;;;;;;;;522712;28;1442;-64
2023/01/13 12:07:11;;;;;;;8.38;1.98;;;;;;;;;;518490;28;1242;-64
2023/01/13 12:07:45;;;;;;;9.07;2.10;;;;;;;;;;525469;28;1018;-63
2023/01/13 12:08:17;;;;;;;8.75;1.90;;;;;;;;;;529476;27;991;-64
2023/01/13 12:08:49;;;;;;;9.80;2.13;;;;;;;;;;532024;27;1052;-63
2023/01/13 12:09:24;;;;;;;7.95;1.83;;;;;;;;;;531039;27;1910;-63
2023/01/13 12:09:51;;;;;;;7.07;1.73;;;;;;;;;;530557;27;1102;-63
2023/01/13 12:10:38;;;;;;;8.10;1.90;;;;;;;;;;527982;27;1293;-63
2023/01/13 12:10:57;;;;;;;8.20;2.08;;;;;;;;;;526904;27;1263;-63
2023/01/13 12:11:29;;;;;;;8.35;2.30;;;;;;;;;;526286;28;1514;-63
2023/01/13 12:12:51;;;;;;;8.05;2.00;;;;;;;;;;527287;28;938;-63
2023/01/13 12:13:29;;;;;;;8.95;2.00;;;;;;;;;;525409;28;1030;-63
2023/01/13 12:13:59;;;;;;;10.10;2.20;;;;;;;;;;528760;27;939;-62
2023/01/13 12:14:42;;;;;;;8.73;2.10;;;;;;;;;;527055;28;1031;-63
2023/01/13 12:15:16;;;;;;;9.55;2.08;;;;;;;;;;525300;28;1520;-65
2023/01/13 12:15:34;;;;;;;10.45;2.85;;;;;;;;;;526334;28;1552;-63
2023/01/13 12:16:22;;;;;;;9.23;1.90;;;;;;;;;;527523;28;1074;-62
2023/01/13 12:16:47;;;;;;;9.23;2.10;;;;;;;;;;525737;28;1260;-62
2023/01/13 12:17:10;;;;;;;9.18;2.10;;;;;;;;;;528345;27;1130;-63
2023/01/13 12:17:51;;;;;;;9.13;2.28;;;;;;;;;;530604;27;1057;-63
2023/01/13 12:18:37;;;;;;;8.63;3.00;;;;;;;;;;531552;27;1154;-63
2023/01/13 12:19:19;;;;;;;8.18;2.15;;;;;;;;;;527289;27;1439;-63
2023/01/13 12:19:34;;;;;;;10.18;2.30;;;;;;;;;;526495;28;1435;-62
2023/01/13 12:19:50;;;;;;;9.03;1.97;;;;;;;;;;527290;28;1154;-62
2023/01/13 12:20:34;;;;;;;9.90;2.13;;;;;;;;;;524944;28;1365;-63
2023/01/13 12:20:53;;;;;;;8.45;1.80;;;;;;;;;;522644;28;1111;-63
2023/01/13 12:21:19;;;;;;;8.80;2.13;;;;;;;;;;523222;28;1069;-62
2023/01/13 12:21:45;;;;;;;8.68;2.10;;;;;;;;;;525146;28;982;-62
2023/01/13 12:22:19;;;;;;;9.77;2.10;;;;;;;;;;528704;27;882;-64
2023/01/13 12:22:36;;;;;;;8.70;2.17;;;;;;;;;;530364;27;1004;-63
2023/01/13 12:22:54;;;;;;;7.32;2.05;;;;;;;;;;529400;27;1517;-62
2023/01/13 12:23:26;;;;;;;8.70;2.10;;;;;;;;;;528998;27;1549;-63
2023/01/13 12:24:09;;;;;;;8.85;2.10;;;;;;;;;;527458;27;1384;-63
2023/01/13 12:24:31;;;;;;;9.18;2.05;;;;;;;;;;526479;27;1223;-63
2023/01/13 12:25:11;;;;;;;10.15;2.00;;;;;;;;;;527276;27;1189;-65
2023/01/13 12:25:38;;;;;;;7.97;2.10;;;;;;;;;;524700;28;1077;-65
2023/01/13 12:25:59;;;;;;;8.45;2.25;;;;;;;;;;525806;28;1458;-64
2023/01/13 12:26:15;;;;;;;7.90;2.28;;;;;;;;;;523212;28;1943;-65
2023/01/13 12:26:36;;;;;;;7.90;2.13;;;;;;;;;;520851;28;1309;-66
2023/01/13 12:27:00;;;;;;;8.07;2.17;;;;;;;;;;521479;28;1473;-64
2023/01/13 12:27:36;;;;;;;7.90;2.10;;;;;;;;;;521389;28;1185;-63
2023/01/13 12:28:12;;;;;;;8.88;1.92;;;;;;;;;;524039;28;1461;-64
2023/01/13 12:28:35;;;;;;;9.70;1.95;;;;;;;;;;524050;28;1349;-65
2023/01/13 12:28:59;;;;;;;8.10;1.80;;;;;;;;;;522301;28;1352;-64
2023/01/13 12:29:18;;;;;;;8.75;1.90;;;;;;;;;;522878;28;2022;-64
2023/01/13 12:29:35;;;;;;;9.52;2.03;;;;;;;;;;523642;28;1346;-64
2023/01/13 12:29:55;;;;;;;10.60;2.17;;;;;;;;;;524219;28;1034;-65
2023/01/13 12:30:23;;;;;;;10.48;2.05;;;;;;;;;;520771;28;1398;-65
2023/01/13 12:30:44;;;;;;;7.82;1.90;;;;;;;;;;522638;28;1300;-64
2023/01/13 12:31:02;;;;;;;8.95;1.95;;;;;;;;;;525934;28;1138;-64
2023/01/13 12:31:18;;;;;;;11.48;2.38;;;;;;;;;;526056;28;970;-65
2023/01/13 12:31:38;;;;;;;9.52;2.13;;;;;;;;;;527314;27;1211;-64
2023/01/13 12:31:54;;;;;;;8.18;2.00;;;;;;;;;;526911;27;1093;-66
2023/01/13 12:32:14;;;;;;;8.35;2.00;;;;;;;;;;530243;27;1025;-66
2023/01/13 12:32:35;;;;;;;9.05;2.30;;;;;;;;;;525907;27;1344;-64
2023/01/13 12:32:57;;;;;;;8.60;1.95;;;;;;;;;;524660;28;1267;-64
2023/01/13 12:33:32;;;;;;;8.27;2.08;;;;;;;;;;524245;28;1097;-64
2023/01/13 12:34:20;;;;;;;9.02;2.10;;;;;;;;;;520699;28;986;-64
2023/01/13 12:34:44;;;;;;;6.95;1.60;;;;;;;;;;523241;28;1471;-64
2023/01/13 12:35:18;;;;;;;5.13;1.30;;;;;;;;;;525850;28;1241;-64
2023/01/13 12:35:44;;;;;;;4.20;1.00;;;;;;;;;;525326;28;1044;-64
2023/01/13 12:36:14;;;;;;;5.18;1.10;;;;;;;;;;525422;28;1038;-63
2023/01/13 12:36:48;;;;;;;4.47;1.00;;;;;;;;;;526092;27;1006;-64
2023/01/13 12:37:16;;;;;;;2.75;0.90;;;;;;;;;;527763;27;1793;-65
2023/01/13 12:37:41;;;;;;;4.10;0.70;;;;;;;;;;527013;27;1275;-63
2023/01/13 12:38:08;;;;;;;3.28;0.60;;;;;;;;;;527026;27;1504;-64
2023/01/13 12:38:34;;;;;;;3.17;0.50;;;;;;;;;;526705;27;1108;-64
2023/01/13 12:39:17;;;;;;;1.90;0.50;;;;;;;;;;523591;28;1121;-64
2023/01/13 12:40:03;;;;;;;3.42;0.77;;;;;;;;;;522875;28;1524;-65
2023/01/13 12:40:37;;;;;;;1.98;0.50;;;;;;;;;;524621;28;1080;-64
2023/01/13 12:41:05;;;;;;;1.83;0.50;;;;;;;;;;527181;27;1002;-63
2023/01/13 12:41:34;;;;;;;2.53;0.63;;;;;;;;;;524287;28;1096;-65
2023/01/13 12:44:29;;;;;;;2.75;0.50;;;;;;;;;;530835;27;938;-63
2023/01/13 12:45:09;;;;;;;2.80;0.60;;;;;;;;;;528387;27;1210;-63
2023/01/13 12:45:27;;;;;;;2.80;0.60;;;;;;;;;;526604;27;1172;-64
2023/01/13 12:45:42;;;;;;;2.53;0.57;;;;;;;;;;524426;28;1274;-64
2023/01/13 12:46:22;;;;;;;2.20;0.50;;;;;;;;;;523946;28;1218;-65
2023/01/13 12:46:45;;;;;;;2.00;0.43;;;;;;;;;;524134;28;967;-64
2023/01/13 12:47:00;;;;;;;2.30;0.52;;;;;;;;;;525561;28;1002;-64
2023/01/13 12:47:36;;;;;;;2.88;0.60;;;;;;;;;;526064;28;1237;-63
2023/01/13 12:47:51;;;;;;;1.77;0.50;;;;;;;;;;524319;28;1419;-64
2023/01/13 12:48:45;;;;;;;1.67;0.40;;;;;;;;;;525999;28;1160;-63
2023/01/13 12:49:00;;;;;;;1.80;0.40;;;;;;;;;;525171;28;1119;-64
2023/01/13 12:49:29;;;;;;;2.47;0.50;;;;;;;;;;523972;28;1970;-63
2023/01/13 12:49:46;;;;;;;3.08;0.68;;;;;;;;;;525535;27;1439;-63
2023/01/13 12:50:23;;;;;;;2.33;0.60;;;;;;;;;;528344;27;1025;-63
2023/01/13 12:50:39;;;;;;;2.13;0.50;;;;;;;;;;528337;27;1084;-64
2023/01/13 12:50:59;;;;;;;1.85;0.50;;;;;;;;;;528104;27;1224;-65
2023/01/13 12:51:52;;;;;;;2.40;0.52;;;;;;;;;;525977;28;1475;-64
2023/01/13 12:52:13;;;;;;;2.30;0.60;;;;;;;;;;524212;28;2004;-65
2023/01/13 12:52:42;;;;;;;2.42;0.60;;;;;;;;;;526110;28;1124;-65
2023/01/13 12:53:19;;;;;;;3.22;0.80;;;;;;;;;;524902;28;1384;-66
2023/01/13 12:53:35;;;;;;;3.55;1.10;;;;;;;;;;527879;27;1122;-66
2023/01/13 12:53:51;;;;;;;3.30;1.00;;;;;;;;;;528383;27;1268;-65
2023/01/13 12:54:38;;;;;;;2.78;0.60;;;;;;;;;;526246;28;1470;-66
2023/01/13 12:54:53;;;;;;;2.95;0.57;;;;;;;;;;523356;28;1585;-66
2023/01/13 12:55:14;;;;;;;2.47;0.60;;;;;;;;;;522146;28;1374;-66
2023/01/13 12:55:34;;;;;;;2.70;0.65;;;;;;;;;;520396;28;1380;-64
2023/01/13 12:55:52;;;;;;;2.60;0.63;;;;;;;;;;519034;28;1547;-66
2023/01/13 12:56:26;;;;;;;3.05;0.60;;;;;;;;;;519569;28;1382;-66
2023/01/13 12:56:44;;;;;;;4.05;1.10;;;;;;;;;;517460;28;1184;-65
2023/01/13 12:57:00;;;;;;;2.92;0.77;;;;;;;;;;521664;28;1284;-66
2023/01/13 12:57:15;;;;;;;2.27;0.60;;;;;;;;;;522186;28;1198;-66
2023/01/13 12:57:32;;;;;;;2.83;0.60;;;;;;;;;;521144;28;1217;-66
2023/01/13 12:57:54;;;;;;;2.63;0.52;;;;;;;;;;521756;28;1310;-65
2023/01/13 12:58:09;;;;;;;3.38;0.60;;;;;;;;;;521031;28;1091;-67
2023/01/13 12:58:27;;;;;;;3.22;0.70;;;;;;;;;;518433;28;1255;-66
2023/01/13 12:58:43;;;;;;;2.50;0.80;;;;;;;;;;520987;28;1015;-66
2023/01/13 12:59:18;;;;;;;3.10;1.00;;;;;;;;;;521379;28;983;-66
2023/01/13 12:59:34;;;;;;;2.90;0.75;;;;;;;;;;525065;28;1184;-66
2023/01/13 12:59:58;;;;;;;3.03;0.80;;;;;;;;;;525460;28;1237;-64
2023/01/13 13:00:14;;;;;;;2.92;0.93;;;;;;;;;;525241;28;1101;-65
2023/01/13 13:00:55;;;;;;;2.83;0.80;;;;;;;;;;525094;28;1195;-66
2023/01/13 13:01:13;;;;;;;3.75;0.80;;;;;;;;;;516745;28;1318;-65
2023/01/13 13:01:35;;;;;;;2.75;0.80;;;;;;;;;;522598;28;1271;-66
2023/01/13 13:02:10;;;;;;;2.90;0.80;;;;;;;;;;521751;28;1259;-66
2023/01/13 13:02:42;;;;;;;3.13;0.80;;;;;;;;;;524929;28;1188;-66
2023/01/13 13:03:09;;;;;;;4.50;1.00;;;;;;;;;;524834;28;1121;-66
2023/01/13 13:03:31;;;;;;;4.10;0.90;;;;;;;;;;525515;28;1125;-65
2023/01/13 13:04:09;;;;;;;4.40;0.95;;;;;;;;;;523843;28;2197;-65
2023/01/13 13:04:59;;;;;;;5.30;2.28;;;;;;;;;;524943;28;2190;-65
2023/01/13 13:05:23;;;;;;;11.10;6.43;;;;;;;;;;515301;28;1459;-65
2023/01/13 13:05:48;;;;;;;15.98;10.25;;;;;;;;;;514639;28;1338;-65
2023/01/13 13:06:18;;;;;;;5.60;2.83;;;;;;;;;;516184;28;1279;-64
2023/01/13 13:06:36;;;;;;;4.85;2.00;;;;;;;;;;526270;27;1552;-66
2023/01/13 13:07:05;;;;;;;14.55;7.95;;;;;;;;;;525315;28;1085;-66
2023/01/13 13:07:29;;;;;;;15.65;7.85;;;;;;;;;;524819;28;2336;-66
2023/01/13 13:08:03;;;;;;;4.60;1.52;;;;;;;;;;524493;28;994;-65
2023/01/13 13:08:23;;;;;;;5.20;1.08;;;;;;;;;;522913;28;1118;-66
2023/01/13 13:08:41;;;;;;;4.70;1.08;;;;;;;;;;525035;28;1232;-66
2023/01/13 13:09:12;;;;;;;3.83;1.02;;;;;;;;;;525260;28;1552;-66
2023/01/13 13:09:31;;;;;;;4.65;1.13;;;;;;;;;;524850;28;1298;-66
2023/01/13 13:10:16;;;;;;;17.17;10.10;;;;;;;;;;524185;28;1295;-65
2023/01/13 13:10:39;;;;;;;7.05;3.15;;;;;;;;;;516337;28;1222;-66
2023/01/13 13:13:46;;;;;;;5.26;2.25;;;;;;;;;;174019;28;10003431;-66
2023/01/13 13:14:05;;;;;;;5.07;2.35;;;;;;;;;;524743;27;1314;-66
2023/01/13 13:14:38;;;;;;;4.75;1.67;;;;;;;;;;527211;27;1422;-66
2023/01/13 13:14:53;;;;;;;18.17;12.95;;;;;;;;;;527148;27;1748;-66
2023/01/13 13:15:20;;;;;;;21.23;14.40;;;;;;;;;;525949;28;1386;-66
2023/01/13 13:15:36;;;;;;;9.57;5.55;;;;;;;;;;524994;28;1133;-66
2023/01/13 13:16:23;;;;;;;6.97;3.33;;;;;;;;;;523755;28;1346;-66
2023/01/13 13:16:50;;;;;;;7.88;3.85;;;;;;;;;;524849;28;1057;-65
2023/01/13 13:17:27;;;;;;;8.35;5.07;;;;;;;;;;527935;27;1088;-65
2023/01/13 13:17:44;;;;;;;5.45;1.20;;;;;;;;;;525990;27;1108;-65
2023/01/13 13:18:27;;;;;;;6.80;2.92;;;;;;;;;;527112;27;1112;-63
2023/01/13 13:18:42;;;;;;;5.65;1.30;;;;;;;;;;523445;27;1244;-64
2023/01/13 13:19:16;;;;;;;5.07;1.03;;;;;;;;;;527824;27;1088;-62
2023/01/13 13:19:31;;;;;;;4.07;1.00;;;;;;;;;;526905;27;1256;-65
2023/01/13 13:19:48;;;;;;;4.45;1.10;;;;;;;;;;530485;27;1096;-64
2023/01/13 13:20:03;;;;;;;4.88;1.17;;;;;;;;;;530217;27;1088;-63
2023/01/13 13:20:56;;;;;;;4.32;1.08;;;;;;;;;;529188;27;1111;-64
2023/01/13 13:21:11;;;;;;;4.28;1.25;;;;;;;;;;526837;27;1317;-63
2023/01/13 13:22:24;;;;;;;4.17;1.20;;;;;;;;;;524731;28;1199;-64
2023/01/13 13:22:49;;;;;;;4.93;1.17;;;;;;;;;;513992;28;1417;-65
2023/01/13 13:23:47;;;;;;;4.20;1.05;;;;;;;;;;514240;28;1533;-64
2023/01/13 13:24:03;;;;;;;3.97;1.10;;;;;;;;;;516332;28;1349;-66
2023/01/13 13:24:19;;;;;;;3.90;1.20;;;;;;;;;;517187;28;1257;-63
2023/01/13 13:24:34;;;;;;;3.93;1.00;;;;;;;;;;517564;28;1290;-64
2023/01/13 13:24:50;;;;;;;4.13;0.90;;;;;;;;;;518371;28;1304;-64
2023/01/13 13:25:05;;;;;;;4.60;0.90;;;;;;;;;;520119;28;1019;-63
2023/01/13 13:25:22;;;;;;;3.73;0.90;;;;;;;;;;521614;28;1303;-64
2023/01/13 13:25:58;;;;;;;4.30;1.05;;;;;;;;;;520315;28;1005;-63
2023/01/13 13:26:18;;;;;;;4.22;1.08;;;;;;;;;;519781;28;1425;-65
2023/01/13 13:26:44;;;;;;;3.95;1.02;;;;;;;;;;520483;28;997;-64
2023/01/13 13:27:21;;;;;;;3.55;1.00;;;;;;;;;;518037;28;1462;-63
2023/01/13 13:27:36;;;;;;;5.63;1.25;;;;;;;;;;517004;28;1703;-65
2023/01/13 13:28:05;;;;;;;6.10;1.30;;;;;;;;;;516386;28;1402;-65
2023/01/13 13:28:21;;;;;;;4.25;1.15;;;;;;;;;;516362;28;1188;-63
2023/01/13 13:28:45;;;;;;;4.10;1.10;;;;;;;;;;517048;28;1423;-65
2023/01/13 13:29:15;;;;;;;5.00;1.13;;;;;;;;;;517555;28;1393;-64
2023/01/13 13:29:44;;;;;;;3.90;1.05;;;;;;;;;;517366;28;1291;-64
2023/01/13 13:30:03;;;;;;;3.85;1.20;;;;;;;;;;517831;28;1123;-64
2023/01/13 13:30:29;;;;;;;4.47;1.05;;;;;;;;;;519260;28;1409;-65
2023/01/13 13:30:52;;;;;;;5.10;1.30;;;;;;;;;;518320;28;1374;-63
2023/01/13 13:31:23;;;;;;;4.75;1.20;;;;;;;;;;519343;28;1314;-65
2023/01/13 13:32:00;;;;;;;5.28;1.25;;;;;;;;;;517575;28;1256;-64
2023/01/13 13:32:40;;;;;;;4.03;1.10;;;;;;;;;;517596;28;1299;-65
2023/01/13 13:33:01;;;;;;;4.82;1.00;;;;;;;;;;518313;28;1474;-63
2023/01/13 13:33:51;;;;;;;4.32;1.10;;;;;;;;;;521731;28;1027;-64
2023/01/13 13:34:34;;;;;;;4.18;1.00;;;;;;;;;;518849;28;1575;-64
2023/01/13 13:35:10;;;;;;;3.88;1.10;;;;;;;;;;515554;28;1481;-64
2023/01/13 13:35:39;;;;;;;4.22;0.93;;;;;;;;;;516486;28;1485;-63
2023/01/13 13:36:07;;;;;;;5.30;1.08;;;;;;;;;;515718;28;1115;-64
2023/01/13 13:36:54;;;;;;;4.25;1.00;;;;;;;;;;514151;28;1299;-64
2023/01/13 13:37:31;;;;;;;5.28;1.30;;;;;;;;;;512661;28;1316;-65
2023/01/13 13:46:46;;;;;;;5.55;1.38;;;;;;;;;;513658;28;1433;-67
2023/01/13 13:47:05;;;;;;;6.45;1.27;;;;;;;;;;515018;28;1650;-65
2023/01/13 13:47:20;;;;;;;5.70;1.30;;;;;;;;;;513750;28;1398;-66
2023/01/13 13:47:37;;;;;;;4.93;1.20;;;;;;;;;;517148;28;1307;-67
2023/01/13 13:47:52;;;;;;;4.70;1.20;;;;;;;;;;519144;28;1004;-66
2023/01/13 13:48:27;;;;;;;4.37;1.20;;;;;;;;;;516082;28;1207;-64
2023/01/13 13:48:53;;;;;;;5.10;1.23;;;;;;;;;;514019;28;1044;-66
2023/01/13 13:49:08;;;;;;;5.60;1.27;;;;;;;;;;513484;28;1055;-65
2023/01/13 13:49:39;;;;;;;5.35;1.20;;;;;;;;;;515265;28;1401;-66
2023/01/13 13:50:06;;;;;;;4.65;1.13;;;;;;;;;;514782;28;1377;-66
2023/01/13 13:50:21;;;;;;;5.25;1.13;;;;;;;;;;517472;28;1134;-66
2023/01/13 13:50:46;;;;;;;4.45;1.17;;;;;;;;;;516890;28;1272;-66
2023/01/13 13:51:15;;;;;;;4.68;1.20;;;;;;;;;;517076;28;1166;-66
2023/01/13 13:51:39;;;;;;;6.50;1.38;;;;;;;;;;518794;28;1390;-65
2023/01/13 13:52:09;;;;;;;6.70;1.48;;;;;;;;;;518234;28;1396;-65
2023/01/13 13:52:36;;;;;;;5.78;1.50;;;;;;;;;;518579;28;1224;-66
2023/01/13 13:53:01;;;;;;;5.07;1.60;;;;;;;;;;519414;28;1032;-65
2023/01/13 13:53:18;;;;;;;3.92;1.30;;;;;;;;;;520530;28;1054;-66
2023/01/13 13:53:38;;;;;;;6.05;1.50;;;;;;;;;;519139;28;1387;-66
2023/01/13 13:53:54;;;;;;;6.20;1.50;;;;;;;;;;520777;28;1362;-66
2023/01/13 13:54:13;;;;;;;5.18;1.50;;;;;;;;;;521054;28;1138;-67
2023/01/13 13:54:30;;;;;;;5.07;1.48;;;;;;;;;;520740;28;1114;-66
2023/01/13 13:54:49;;;;;;;6.43;1.60;;;;;;;;;;520679;28;1772;-66
2023/01/13 13:55:13;;;;;;;6.22;1.40;;;;;;;;;;522551;28;1438;-65
2023/01/13 13:55:29;;;;;;;5.53;1.40;;;;;;;;;;521018;28;1378;-66
2023/01/13 13:55:56;;;;;;;4.97;1.27;;;;;;;;;;520857;28;1095;-66
2023/01/13 13:56:20;;;;;;;5.05;1.60;;;;;;;;;;522316;28;1328;-66
2023/01/13 13:56:41;;;;;;;5.00;1.48;;;;;;;;;;522834;28;1253;-66
2023/01/13 13:56:57;;;;;;;5.05;1.42;;;;;;;;;;523630;28;1487;-65
2023/01/13 13:57:18;;;;;;;5.20;1.35;;;;;;;;;;524692;28;1209;-66
2023/01/13 13:57:35;;;;;;;5.82;1.85;;;;;;;;;;526612;27;1443;-66
2023/01/13 13:57:56;;;;;;;6.25;2.13;;;;;;;;;;527059;27;1131;-65
2023/01/13 13:58:16;;;;;;;6.38;2.03;;;;;;;;;;526226;27;1153;-66
2023/01/13 13:58:35;;;;;;;5.65;2.30;;;;;;;;;;527334;27;1082;-64
2023/01/13 13:58:51;;;;;;;5.10;1.58;;;;;;;;;;527169;27;1370;-66
2023/01/13 13:59:12;;;;;;;5.55;2.30;;;;;;;;;;529282;27;1132;-66
2023/01/13 13:59:29;;;;;;;6.18;1.77;;;;;;;;;;530234;27;986;-65
2023/01/13 13:59:47;;;;;;;6.90;1.67;;;;;;;;;;530245;27;1119;-65
2023/01/13 14:00:14;;;;;;;6.75;1.50;;;;;;;;;;527498;27;1367;-66
2023/01/13 14:00:33;;;;;;;5.32;1.30;;;;;;;;;;524608;28;1224;-68
2023/01/13 14:00:49;;;;;;;4.95;1.55;;;;;;;;;;524422;28;1188;-65
2023/01/13 14:01:04;;;;;;;5.75;1.60;;;;;;;;;;523800;28;1253;-67
2023/01/13 14:01:24;;;;;;;7.10;1.57;;;;;;;;;;522031;28;1060;-66
2023/01/13 14:01:43;;;;;;;6.53;1.45;;;;;;;;;;520105;28;1296;-64
2023/01/13 14:02:00;;;;;;;6.03;1.48;;;;;;;;;;524438;28;1305;-65
2023/01/13 14:02:22;;;;;;;7.15;1.77;;;;;;;;;;525773;28;1136;-66
2023/01/13 14:02:38;;;;;;;5.95;1.63;;;;;;;;;;524656;28;1412;-65
2023/01/13 14:03:00;;;;;;;6.55;1.50;;;;;;;;;;526040;28;1129;-65
2023/01/13 14:03:29;;;;;;;7.43;1.52;;;;;;;;;;524895;28;904;-64
2023/01/13 14:03:44;;;;;;;5.78;1.50;;;;;;;;;;524539;28;1159;-64
2023/01/13 14:04:05;;;;;;;7.87;1.50;;;;;;;;;;524683;28;1061;-64
2023/01/13 14:04:24;;;;;;;8.50;1.42;;;;;;;;;;522372;28;1460;-66
2023/01/13 14:04:40;;;;;;;6.03;1.60;;;;;;;;;;525308;28;1017;-66
2023/01/13 14:05:13;;;;;;;6.22;1.52;;;;;;;;;;525042;28;1042;-65
2023/01/13 14:05:35;;;;;;;7.30;1.80;;;;;;;;;;524617;28;1284;-65
2023/01/13 14:05:58;;;;;;;8.00;1.65;;;;;;;;;;527991;27;1333;-66
2023/01/13 14:06:22;;;;;;;6.38;1.70;;;;;;;;;;526354;27;1361;-66
2023/01/13 14:06:49;;;;;;;6.40;1.70;;;;;;;;;;525797;27;1272;-65
2023/01/13 14:07:20;;;;;;;6.53;1.60;;;;;;;;;;527393;27;1252;-67
2023/01/13 14:07:45;;;;;;;5.97;1.60;;;;;;;;;;526783;27;1560;-66
2023/01/13 14:08:09;;;;;;;5.45;1.95;;;;;;;;;;525820;28;1259;-65
2023/01/13 14:08:26;;;;;;;6.45;1.92;;;;;;;;;;524168;28;1118;-63
2023/01/13 14:08:48;;;;;;;7.22;1.80;;;;;;;;;;524929;28;1064;-66
2023/01/13 14:09:15;;;;;;;7.68;1.80;;;;;;;;;;525015;28;1294;-66
2023/01/13 14:09:44;;;;;;;6.53;1.75;;;;;;;;;;523777;28;1263;-66
2023/01/13 14:09:59;;;;;;;7.25;1.75;;;;;;;;;;524726;28;991;-64
2023/01/13 14:10:21;;;;;;;7.35;1.65;;;;;;;;;;522525;28;1482;-66